sensor_id;sensor_type;location;lat;lon;timestamp;temperature;humidity
17797;DHT22;55596;53.554;9.916;2022-11-20T00:01:36;1.70;99.90
17797;DHT22;55596;53.554;9.916;2022-11-20T00:04:03;1.40;99.90
17797;DHT22;55596;53.554;9.916;2022-11-20T00:06:30;1.30;99.90
17797;DHT22;55596;53.554;9.916;2022-11-20T00:08:59;1.20;99.90
17797;DHT22;55596;53.554;9.916;2022-11-20T00:11:28;1.40;99.90
17797;DHT22;55596;53.554;9.916;2022-11-20T00:13:57;1.40;99.90
17797;DHT22;55596;53.554;9.916;2022-11-20T00:16:26;1.60;99.90
17797;DHT22;55596;53.554;9.916;2022-11-20T00:18:55;1.40;99.90
17797;DHT22;55596;53.554;9.916;2022-11-20T00:21:23;1.60;99.90
17797;DHT22;55596;53.554;9.916;2022-11-20T00:23:51;1.90;99.90
17797;DHT22;55596;53.554;9.916;2022-11-20T00:26:20;4.10;99.90
17797;DHT22;55596;53.554;9.916;2022-11-20T00:28:50;1.40;99.90
17797;DHT22;55596;53.554;9.916;2022-11-20T00:31:17;1.40;99.90
17797;DHT22;55596;53.554;9.916;2022-11-20T00:33:44;1.20;99.90
17797;DHT22;55596;53.554;9.916;2022-11-20T00:36:14;1.20;99.90
17797;DHT22;55596;53.554;9.916;2022-11-20T00:38:42;1.40;99.90
17797;DHT22;55596;53.554;9.916;2022-11-20T00:41:10;1.30;99.90
17797;DHT22;55596;53.554;9.916;2022-11-20T00:43:38;1.40;99.90
17797;DHT22;55596;53.554;9.916;2022-11-20T00:46:06;1.40;99.90
17797;DHT22;55596;53.554;9.916;2022-11-20T00:48:33;3.10;99.90
17797;DHT22;55596;53.554;9.916;2022-11-20T00:51:00;1.40;99.90
17797;DHT22;55596;53.554;9.916;2022-11-20T00:53:29;1.60;99.90
17797;DHT22;55596;53.554;9.916;2022-11-20T00:55:57;1.40;99.90
17797;DHT22;55596;53.554;9.916;2022-11-20T00:58:29;1.20;99.90
17797;DHT22;55596;53.554;9.916;2022-11-20T01:01:00;1.50;99.90
17797;DHT22;55596;53.554;9.916;2022-11-20T01:03:30;1.40;99.90
17797;DHT22;55596;53.554;9.916;2022-11-20T01:06:00;1.60;99.90
17797;DHT22;55596;53.554;9.916;2022-11-20T01:08:30;1.20;99.90
17797;DHT22;55596;53.554;9.916;2022-11-20T01:11:01;1.10;99.90
17797;DHT22;55596;53.554;9.916;2022-11-20T01:13:29;1.40;99.90
17797;DHT22;55596;53.554;9.916;2022-11-20T01:16:08;1.40;99.90
17797;DHT22;55596;53.554;9.916;2022-11-20T01:18:35;1.40;99.90
17797;DHT22;55596;53.554;9.916;2022-11-20T01:21:04;3.50;99.90
17797;DHT22;55596;53.554;9.916;2022-11-20T01:23:34;1.40;99.90
17797;DHT22;55596;53.554;9.916;2022-11-20T01:26:02;3.40;99.90
17797;DHT22;55596;53.554;9.916;2022-11-20T01:28:30;1.20;99.90
17797;DHT22;55596;53.554;9.916;2022-11-20T01:30:57;1.40;99.90
17797;DHT22;55596;53.554;9.916;2022-11-20T01:33:24;1.50;99.90
17797;DHT22;55596;53.554;9.916;2022-11-20T01:35:51;3.00;99.90
17797;DHT22;55596;53.554;9.916;2022-11-20T01:38:19;1.50;99.90
17797;DHT22;55596;53.554;9.916;2022-11-20T01:40:55;1.60;99.90
17797;DHT22;55596;53.554;9.916;2022-11-20T01:43:22;1.60;99.90
17797;DHT22;55596;53.554;9.916;2022-11-20T01:46:08;1.80;99.90
17797;DHT22;55596;53.554;9.916;2022-11-20T01:48:42;1.40;99.90
17797;DHT22;55596;53.554;9.916;2022-11-20T01:51:21;1.70;99.90
17797;DHT22;55596;53.554;9.916;2022-11-20T01:53:51;1.30;99.90
17797;DHT22;55596;53.554;9.916;2022-11-20T01:56:21;4.20;99.90
17797;DHT22;55596;53.554;9.916;2022-11-20T01:58:51;3.90;99.90
17797;DHT22;55596;53.554;9.916;2022-11-20T02:01:20;1.60;99.90
17797;DHT22;55596;53.554;9.916;2022-11-20T02:03:48;1.60;99.90
17797;DHT22;55596;53.554;9.916;2022-11-20T02:06:21;1.90;99.90
17797;DHT22;55596;53.554;9.916;2022-11-20T02:08:49;1.80;99.90
17797;DHT22;55596;53.554;9.916;2022-11-20T02:11:17;1.60;99.90
17797;DHT22;55596;53.554;9.916;2022-11-20T02:13:45;1.60;99.90
17797;DHT22;55596;53.554;9.916;2022-11-20T02:16:15;1.50;99.90
17797;DHT22;55596;53.554;9.916;2022-11-20T02:18:43;1.50;99.90
17797;DHT22;55596;53.554;9.916;2022-11-20T02:21:24;1.60;99.90
17797;DHT22;55596;53.554;9.916;2022-11-20T02:24:00;1.40;99.90
17797;DHT22;55596;53.554;9.916;2022-11-20T02:26:29;1.40;99.90
17797;DHT22;55596;53.554;9.916;2022-11-20T02:28:58;1.70;99.90
17797;DHT22;55596;53.554;9.916;2022-11-20T02:31:26;1.60;99.90
17797;DHT22;55596;53.554;9.916;2022-11-20T02:33:57;1.50;99.90
17797;DHT22;55596;53.554;9.916;2022-11-20T02:36:26;1.40;99.90
17797;DHT22;55596;53.554;9.916;2022-11-20T02:38:55;1.50;99.90
17797;DHT22;55596;53.554;9.916;2022-11-20T02:41:31;1.40;99.90
17797;DHT22;55596;53.554;9.916;2022-11-20T02:43:57;1.50;99.90
17797;DHT22;55596;53.554;9.916;2022-11-20T02:46:24;1.40;99.90
17797;DHT22;55596;53.554;9.916;2022-11-20T02:48:51;1.40;99.90
17797;DHT22;55596;53.554;9.916;2022-11-20T02:51:18;1.10;99.90
17797;DHT22;55596;53.554;9.916;2022-11-20T02:53:45;1.40;99.90
17797;DHT22;55596;53.554;9.916;2022-11-20T02:56:13;1.40;99.90
17797;DHT22;55596;53.554;9.916;2022-11-20T02:58:40;1.40;99.90
17797;DHT22;55596;53.554;9.916;2022-11-20T03:01:07;1.40;99.90
17797;DHT22;55596;53.554;9.916;2022-11-20T03:03:34;1.40;99.90
17797;DHT22;55596;53.554;9.916;2022-11-20T03:06:01;1.40;99.90
17797;DHT22;55596;53.554;9.916;2022-11-20T03:08:28;1.40;99.90
17797;DHT22;55596;53.554;9.916;2022-11-20T03:10:55;1.30;99.90
17797;DHT22;55596;53.554;9.916;2022-11-20T03:13:24;1.40;99.90
17797;DHT22;55596;53.554;9.916;2022-11-20T03:15:51;1.40;99.90
17797;DHT22;55596;53.554;9.916;2022-11-20T03:18:18;1.40;99.90
17797;DHT22;55596;53.554;9.916;2022-11-20T03:20:45;1.30;99.90
17797;DHT22;55596;53.554;9.916;2022-11-20T03:23:12;3.20;99.90
17797;DHT22;55596;53.554;9.916;2022-11-20T03:25:39;1.30;99.90
17797;DHT22;55596;53.554;9.916;2022-11-20T03:28:06;1.10;99.90
17797;DHT22;55596;53.554;9.916;2022-11-20T03:30:35;1.40;99.90
17797;DHT22;55596;53.554;9.916;2022-11-20T03:33:01;1.30;99.90
17797;DHT22;55596;53.554;9.916;2022-11-20T03:35:28;1.20;99.90
17797;DHT22;55596;53.554;9.916;2022-11-20T03:37:57;1.20;99.90
17797;DHT22;55596;53.554;9.916;2022-11-20T03:40:23;1.30;99.90
17797;DHT22;55596;53.554;9.916;2022-11-20T03:42:50;1.20;99.90
17797;DHT22;55596;53.554;9.916;2022-11-20T03:45:18;1.20;99.90
17797;DHT22;55596;53.554;9.916;2022-11-20T03:47:46;1.20;99.90
17797;DHT22;55596;53.554;9.916;2022-11-20T03:50:14;1.10;99.90
17797;DHT22;55596;53.554;9.916;2022-11-20T03:52:41;1.20;99.90
17797;DHT22;55596;53.554;9.916;2022-11-20T03:55:08;1.10;99.90
17797;DHT22;55596;53.554;9.916;2022-11-20T03:57:35;0.90;99.90
17797;DHT22;55596;53.554;9.916;2022-11-20T04:00:03;1.10;99.90
17797;DHT22;55596;53.554;9.916;2022-11-20T04:02:30;1.00;99.90
17797;DHT22;55596;53.554;9.916;2022-11-20T04:04:59;1.00;99.90
17797;DHT22;55596;53.554;9.916;2022-11-20T04:07:26;1.40;99.90
17797;DHT22;55596;53.554;9.916;2022-11-20T04:09:52;1.10;99.90
17797;DHT22;55596;53.554;9.916;2022-11-20T04:12:19;1.00;99.90
17797;DHT22;55596;53.554;9.916;2022-11-20T04:14:46;1.10;99.90
17797;DHT22;55596;53.554;9.916;2022-11-20T04:17:13;1.00;99.90
17797;DHT22;55596;53.554;9.916;2022-11-20T04:19:40;0.90;99.90
17797;DHT22;55596;53.554;9.916;2022-11-20T04:22:08;0.90;99.90
17797;DHT22;55596;53.554;9.916;2022-11-20T04:24:37;0.90;99.90
17797;DHT22;55596;53.554;9.916;2022-11-20T04:27:04;1.00;99.90
17797;DHT22;55596;53.554;9.916;2022-11-20T04:29:30;0.90;99.90
17797;DHT22;55596;53.554;9.916;2022-11-20T04:31:58;1.00;99.90
17797;DHT22;55596;53.554;9.916;2022-11-20T04:34:25;1.00;99.90
17797;DHT22;55596;53.554;9.916;2022-11-20T04:36:52;0.90;99.90
17797;DHT22;55596;53.554;9.916;2022-11-20T04:39:20;0.90;99.90
17797;DHT22;55596;53.554;9.916;2022-11-20T04:41:47;0.90;99.90
17797;DHT22;55596;53.554;9.916;2022-11-20T04:44:34;1.00;99.90
17797;DHT22;55596;53.554;9.916;2022-11-20T04:47:01;0.90;99.90
17797;DHT22;55596;53.554;9.916;2022-11-20T04:49:28;1.00;99.90
17797;DHT22;55596;53.554;9.916;2022-11-20T04:51:55;0.90;99.90
17797;DHT22;55596;53.554;9.916;2022-11-20T04:54:23;1.00;99.90
17797;DHT22;55596;53.554;9.916;2022-11-20T04:56:50;1.00;99.90
17797;DHT22;55596;53.554;9.916;2022-11-20T04:59:17;0.90;99.90
17797;DHT22;55596;53.554;9.916;2022-11-20T05:01:44;0.90;99.90
17797;DHT22;55596;53.554;9.916;2022-11-20T05:04:11;0.80;99.90
17797;DHT22;55596;53.554;9.916;2022-11-20T05:06:38;0.70;99.90
17797;DHT22;55596;53.554;9.916;2022-11-20T05:09:05;0.70;99.90
17797;DHT22;55596;53.554;9.916;2022-11-20T05:11:33;0.80;99.90
17797;DHT22;55596;53.554;9.916;2022-11-20T05:14:00;0.70;99.90
17797;DHT22;55596;53.554;9.916;2022-11-20T05:16:27;0.50;99.90
17797;DHT22;55596;53.554;9.916;2022-11-20T05:18:55;0.70;99.90
17797;DHT22;55596;53.554;9.916;2022-11-20T05:21:23;0.70;99.90
17797;DHT22;55596;53.554;9.916;2022-11-20T05:23:49;1.30;99.90
17797;DHT22;55596;53.554;9.916;2022-11-20T05:26:18;1.40;99.90
17797;DHT22;55596;53.554;9.916;2022-11-20T05:28:46;0.60;99.90
17797;DHT22;55596;53.554;9.916;2022-11-20T05:31:15;0.50;99.90
17797;DHT22;55596;53.554;9.916;2022-11-20T05:33:43;0.70;99.90
17797;DHT22;55596;53.554;9.916;2022-11-20T05:36:12;0.60;99.90
17797;DHT22;55596;53.554;9.916;2022-11-20T05:38:39;0.70;99.90
17797;DHT22;55596;53.554;9.916;2022-11-20T05:41:07;0.60;99.90
17797;DHT22;55596;53.554;9.916;2022-11-20T05:43:35;0.50;99.90
17797;DHT22;55596;53.554;9.916;2022-11-20T05:46:04;0.50;99.90
17797;DHT22;55596;53.554;9.916;2022-11-20T05:48:32;0.60;99.90
17797;DHT22;55596;53.554;9.916;2022-11-20T05:50:59;0.40;99.90
17797;DHT22;55596;53.554;9.916;2022-11-20T05:53:27;0.50;99.90
17797;DHT22;55596;53.554;9.916;2022-11-20T05:55:57;0.50;99.90
17797;DHT22;55596;53.554;9.916;2022-11-20T05:58:24;0.50;99.90
17797;DHT22;55596;53.554;9.916;2022-11-20T06:00:51;0.40;99.90
17797;DHT22;55596;53.554;9.916;2022-11-20T06:03:20;0.40;99.90
17797;DHT22;55596;53.554;9.916;2022-11-20T06:05:47;0.40;99.90
17797;DHT22;55596;53.554;9.916;2022-11-20T06:08:14;0.50;99.90
17797;DHT22;55596;53.554;9.916;2022-11-20T06:10:41;0.50;99.90
17797;DHT22;55596;53.554;9.916;2022-11-20T06:13:07;0.40;99.90
17797;DHT22;55596;53.554;9.916;2022-11-20T06:15:34;0.60;99.90
17797;DHT22;55596;53.554;9.916;2022-11-20T06:18:01;0.80;99.90
17797;DHT22;55596;53.554;9.916;2022-11-20T06:20:30;0.30;99.90
17797;DHT22;55596;53.554;9.916;2022-11-20T06:22:57;0.60;99.90
17797;DHT22;55596;53.554;9.916;2022-11-20T06:25:23;0.50;99.90
17797;DHT22;55596;53.554;9.916;2022-11-20T06:27:50;0.40;99.90
17797;DHT22;55596;53.554;9.916;2022-11-20T06:30:18;0.50;99.90
17797;DHT22;55596;53.554;9.916;2022-11-20T06:32:45;0.50;99.90
17797;DHT22;55596;53.554;9.916;2022-11-20T06:35:12;0.50;99.90
17797;DHT22;55596;53.554;9.916;2022-11-20T06:37:40;0.50;99.90
17797;DHT22;55596;53.554;9.916;2022-11-20T06:40:08;0.50;99.90
17797;DHT22;55596;53.554;9.916;2022-11-20T06:42:36;0.60;99.90
17797;DHT22;55596;53.554;9.916;2022-11-20T06:45:03;0.50;99.90
17797;DHT22;55596;53.554;9.916;2022-11-20T06:47:30;0.40;99.90
17797;DHT22;55596;53.554;9.916;2022-11-20T06:49:56;0.50;99.90
17797;DHT22;55596;53.554;9.916;2022-11-20T06:52:23;0.50;99.90
17797;DHT22;55596;53.554;9.916;2022-11-20T06:54:51;0.40;99.90
17797;DHT22;55596;53.554;9.916;2022-11-20T06:57:18;0.40;99.90
17797;DHT22;55596;53.554;9.916;2022-11-20T06:59:45;0.50;99.90
17797;DHT22;55596;53.554;9.916;2022-11-20T07:02:12;0.40;99.90
17797;DHT22;55596;53.554;9.916;2022-11-20T07:04:39;0.10;99.90
17797;DHT22;55596;53.554;9.916;2022-11-20T07:07:06;0.30;99.90
17797;DHT22;55596;53.554;9.916;2022-11-20T07:09:33;0.40;99.90
17797;DHT22;55596;53.554;9.916;2022-11-20T07:12:01;0.40;99.90
17797;DHT22;55596;53.554;9.916;2022-11-20T07:14:28;0.20;99.90
17797;DHT22;55596;53.554;9.916;2022-11-20T07:16:55;0.20;99.90
17797;DHT22;55596;53.554;9.916;2022-11-20T07:19:22;0.40;99.90
17797;DHT22;55596;53.554;9.916;2022-11-20T07:21:49;0.30;99.90
17797;DHT22;55596;53.554;9.916;2022-11-20T07:24:15;0.30;99.90
17797;DHT22;55596;53.554;9.916;2022-11-20T07:26:42;0.30;99.90
17797;DHT22;55596;53.554;9.916;2022-11-20T07:29:13;0.20;99.90
17797;DHT22;55596;53.554;9.916;2022-11-20T07:31:40;0.50;99.90
17797;DHT22;55596;53.554;9.916;2022-11-20T07:34:07;0.20;99.90
17797;DHT22;55596;53.554;9.916;2022-11-20T07:36:34;0.20;99.90
17797;DHT22;55596;53.554;9.916;2022-11-20T07:39:01;0.20;99.90
17797;DHT22;55596;53.554;9.916;2022-11-20T07:41:28;0.30;99.90
17797;DHT22;55596;53.554;9.916;2022-11-20T07:43:54;0.50;99.90
17797;DHT22;55596;53.554;9.916;2022-11-20T07:46:23;0.60;99.90
17797;DHT22;55596;53.554;9.916;2022-11-20T07:48:50;0.70;99.90
17797;DHT22;55596;53.554;9.916;2022-11-20T07:51:17;0.80;99.90
17797;DHT22;55596;53.554;9.916;2022-11-20T07:53:44;0.80;99.90
17797;DHT22;55596;53.554;9.916;2022-11-20T07:56:11;1.70;99.90
17797;DHT22;55596;53.554;9.916;2022-11-20T07:58:39;1.10;99.90
17797;DHT22;55596;53.554;9.916;2022-11-20T08:01:07;0.70;99.90
17797;DHT22;55596;53.554;9.916;2022-11-20T08:03:36;1.20;99.90
17797;DHT22;55596;53.554;9.916;2022-11-20T08:06:04;3.90;99.90
17797;DHT22;55596;53.554;9.916;2022-11-20T08:08:31;1.70;99.90
17797;DHT22;55596;53.554;9.916;2022-11-20T08:10:58;1.10;99.90
17797;DHT22;55596;53.554;9.916;2022-11-20T08:13:46;1.20;99.90
17797;DHT22;55596;53.554;9.916;2022-11-20T08:16:30;1.20;99.90
17797;DHT22;55596;53.554;9.916;2022-11-20T08:18:59;1.30;99.90
17797;DHT22;55596;53.554;9.916;2022-11-20T08:21:26;1.40;99.90
17797;DHT22;55596;53.554;9.916;2022-11-20T08:23:52;1.50;99.90
17797;DHT22;55596;53.554;9.916;2022-11-20T08:26:21;2.60;99.90
17797;DHT22;55596;53.554;9.916;2022-11-20T08:28:48;1.60;99.90
17797;DHT22;55596;53.554;9.916;2022-11-20T08:31:15;1.20;99.90
17797;DHT22;55596;53.554;9.916;2022-11-20T08:33:41;1.80;99.90
17797;DHT22;55596;53.554;9.916;2022-11-20T08:36:10;1.60;99.90
17797;DHT22;55596;53.554;9.916;2022-11-20T08:38:37;1.60;99.90
17797;DHT22;55596;53.554;9.916;2022-11-20T08:41:04;1.90;99.90
17797;DHT22;55596;53.554;9.916;2022-11-20T08:43:49;1.80;99.90
17797;DHT22;55596;53.554;9.916;2022-11-20T08:46:17;1.90;99.90
17797;DHT22;55596;53.554;9.916;2022-11-20T08:48:44;1.80;99.90
17797;DHT22;55596;53.554;9.916;2022-11-20T08:51:13;2.00;99.90
17797;DHT22;55596;53.554;9.916;2022-11-20T08:53:41;1.90;99.90
17797;DHT22;55596;53.554;9.916;2022-11-20T08:56:08;2.10;99.90
17797;DHT22;55596;53.554;9.916;2022-11-20T08:58:36;2.10;99.90
17797;DHT22;55596;53.554;9.916;2022-11-20T09:01:03;3.80;99.90
17797;DHT22;55596;53.554;9.916;2022-11-20T09:03:30;2.40;99.90
17797;DHT22;55596;53.554;9.916;2022-11-20T09:05:58;2.40;99.90
17797;DHT22;55596;53.554;9.916;2022-11-20T09:08:27;2.30;99.90
17797;DHT22;55596;53.554;9.916;2022-11-20T09:10:55;2.30;99.90
17797;DHT22;55596;53.554;9.916;2022-11-20T09:13:24;2.70;99.90
17797;DHT22;55596;53.554;9.916;2022-11-20T09:15:55;2.30;99.90
17797;DHT22;55596;53.554;9.916;2022-11-20T09:18:24;2.30;99.90
17797;DHT22;55596;53.554;9.916;2022-11-20T09:20:51;2.60;99.90
17797;DHT22;55596;53.554;9.916;2022-11-20T09:23:19;2.70;99.90
17797;DHT22;55596;53.554;9.916;2022-11-20T09:25:47;2.80;99.90
17797;DHT22;55596;53.554;9.916;2022-11-20T09:28:14;3.00;99.90
17797;DHT22;55596;53.554;9.916;2022-11-20T09:30:41;3.60;99.90
17797;DHT22;55596;53.554;9.916;2022-11-20T09:33:08;4.10;99.90
17797;DHT22;55596;53.554;9.916;2022-11-20T09:35:35;2.80;99.90
17797;DHT22;55596;53.554;9.916;2022-11-20T09:38:06;2.60;99.90
17797;DHT22;55596;53.554;9.916;2022-11-20T09:40:35;2.90;99.90
17797;DHT22;55596;53.554;9.916;2022-11-20T09:43:09;2.70;99.90
17797;DHT22;55596;53.554;9.916;2022-11-20T09:45:50;2.70;99.90
17797;DHT22;55596;53.554;9.916;2022-11-20T09:48:36;2.50;99.90
17797;DHT22;55596;53.554;9.916;2022-11-20T09:51:14;2.60;99.90
17797;DHT22;55596;53.554;9.916;2022-11-20T09:53:53;2.60;99.90
17797;DHT22;55596;53.554;9.916;2022-11-20T09:56:22;2.50;99.90
17797;DHT22;55596;53.554;9.916;2022-11-20T09:58:52;2.70;99.90
17797;DHT22;55596;53.554;9.916;2022-11-20T10:01:23;2.80;99.90
17797;DHT22;55596;53.554;9.916;2022-11-20T10:03:57;3.20;99.90
17797;DHT22;55596;53.554;9.916;2022-11-20T10:06:29;3.10;99.90
17797;DHT22;55596;53.554;9.916;2022-11-20T10:09:01;3.30;99.90
17797;DHT22;55596;53.554;9.916;2022-11-20T10:11:35;3.20;99.90
17797;DHT22;55596;53.554;9.916;2022-11-20T10:14:16;3.60;99.90
17797;DHT22;55596;53.554;9.916;2022-11-20T10:16:52;3.80;99.90
17797;DHT22;55596;53.554;9.916;2022-11-20T10:22:22;6.10;99.90
17797;DHT22;55596;53.554;9.916;2022-11-20T10:24:56;3.90;99.90
17797;DHT22;55596;53.554;9.916;2022-11-20T10:30:27;4.00;99.90
17797;DHT22;55596;53.554;9.916;2022-11-20T10:33:00;3.70;99.90
17797;DHT22;55596;53.554;9.916;2022-11-20T10:35:35;3.40;99.90
17797;DHT22;55596;53.554;9.916;2022-11-20T10:38:09;3.70;99.90
17797;DHT22;55596;53.554;9.916;2022-11-20T10:40:42;3.30;99.90
17797;DHT22;55596;53.554;9.916;2022-11-20T10:43:13;6.40;99.90
17797;DHT22;55596;53.554;9.916;2022-11-20T10:45:49;3.50;99.90
17797;DHT22;55596;53.554;9.916;2022-11-20T10:48:20;3.40;99.90
17797;DHT22;55596;53.554;9.916;2022-11-20T10:51:03;3.50;99.90
17797;DHT22;55596;53.554;9.916;2022-11-20T10:53:44;3.50;99.90
17797;DHT22;55596;53.554;9.916;2022-11-20T10:56:17;3.60;99.90
17797;DHT22;55596;53.554;9.916;2022-11-20T10:58:52;3.70;99.90
17797;DHT22;55596;53.554;9.916;2022-11-20T11:01:22;5.60;99.90
17797;DHT22;55596;53.554;9.916;2022-11-20T11:03:51;4.30;99.90
17797;DHT22;55596;53.554;9.916;2022-11-20T11:06:24;4.20;99.90
17797;DHT22;55596;53.554;9.916;2022-11-20T11:08:56;4.20;99.90
17797;DHT22;55596;53.554;9.916;2022-11-20T11:11:28;4.20;99.90
17797;DHT22;55596;53.554;9.916;2022-11-20T11:14:04;4.70;99.90
17797;DHT22;55596;53.554;9.916;2022-11-20T11:16:33;4.30;99.90
17797;DHT22;55596;53.554;9.916;2022-11-20T11:19:04;4.50;99.90
17797;DHT22;55596;53.554;9.916;2022-11-20T11:21:31;4.20;99.90
17797;DHT22;55596;53.554;9.916;2022-11-20T11:24:00;3.70;99.90
17797;DHT22;55596;53.554;9.916;2022-11-20T11:26:28;3.80;99.90
17797;DHT22;55596;53.554;9.916;2022-11-20T11:28:56;3.70;99.90
17797;DHT22;55596;53.554;9.916;2022-11-20T11:31:25;3.90;99.90
17797;DHT22;55596;53.554;9.916;2022-11-20T11:34:04;4.10;99.90
17797;DHT22;55596;53.554;9.916;2022-11-20T11:36:32;3.90;99.90
17797;DHT22;55596;53.554;9.916;2022-11-20T11:39:00;4.40;99.90
17797;DHT22;55596;53.554;9.916;2022-11-20T11:41:30;4.00;99.90
17797;DHT22;55596;53.554;9.916;2022-11-20T11:44:03;4.10;99.90
17797;DHT22;55596;53.554;9.916;2022-11-20T11:46:57;3.80;99.90
17797;DHT22;55596;53.554;9.916;2022-11-20T11:49:27;4.20;99.90
17797;DHT22;55596;53.554;9.916;2022-11-20T11:52:04;3.90;99.90
17797;DHT22;55596;53.554;9.916;2022-11-20T11:54:38;4.80;99.90
17797;DHT22;55596;53.554;9.916;2022-11-20T11:57:12;3.90;99.90
17797;DHT22;55596;53.554;9.916;2022-11-20T11:59:51;3.80;99.90
17797;DHT22;55596;53.554;9.916;2022-11-20T12:02:29;4.10;99.90
17797;DHT22;55596;53.554;9.916;2022-11-20T12:05:03;4.20;99.90
17797;DHT22;55596;53.554;9.916;2022-11-20T12:07:39;4.60;99.90
17797;DHT22;55596;53.554;9.916;2022-11-20T12:10:15;4.60;99.90
17797;DHT22;55596;53.554;9.916;2022-11-20T12:12:46;4.50;99.90
17797;DHT22;55596;53.554;9.916;2022-11-20T12:15:28;4.40;99.90
17797;DHT22;55596;53.554;9.916;2022-11-20T12:17:56;3.90;99.90
17797;DHT22;55596;53.554;9.916;2022-11-20T12:20:28;4.30;99.90
17797;DHT22;55596;53.554;9.916;2022-11-20T12:23:01;5.80;99.90
17797;DHT22;55596;53.554;9.916;2022-11-20T12:25:35;5.00;99.90
17797;DHT22;55596;53.554;9.916;2022-11-20T12:28:28;4.90;99.90
17797;DHT22;55596;53.554;9.916;2022-11-20T12:31:14;4.90;99.90
17797;DHT22;55596;53.554;9.916;2022-11-20T12:34:17;5.90;99.90
17797;DHT22;55596;53.554;9.916;2022-11-20T12:36:55;4.70;99.90
17797;DHT22;55596;53.554;9.916;2022-11-20T12:39:34;4.80;99.90
17797;DHT22;55596;53.554;9.916;2022-11-20T12:42:13;4.50;99.90
17797;DHT22;55596;53.554;9.916;2022-11-20T12:45:14;4.40;99.90
17797;DHT22;55596;53.554;9.916;2022-11-20T12:47:59;5.70;99.90
17797;DHT22;55596;53.554;9.916;2022-11-20T12:50:36;4.10;99.90
17797;DHT22;55596;53.554;9.916;2022-11-20T12:53:14;4.30;99.90
17797;DHT22;55596;53.554;9.916;2022-11-20T12:55:49;5.60;99.90
17797;DHT22;55596;53.554;9.916;2022-11-20T12:58:26;4.00;99.90
17797;DHT22;55596;53.554;9.916;2022-11-20T13:00:58;5.70;99.90
17797;DHT22;55596;53.554;9.916;2022-11-20T13:03:38;3.70;99.90
17797;DHT22;55596;53.554;9.916;2022-11-20T13:06:13;4.10;99.90
17797;DHT22;55596;53.554;9.916;2022-11-20T13:08:47;4.00;99.90
17797;DHT22;55596;53.554;9.916;2022-11-20T13:11:19;3.70;99.90
17797;DHT22;55596;53.554;9.916;2022-11-20T13:14:04;3.80;99.90
17797;DHT22;55596;53.554;9.916;2022-11-20T13:16:38;4.00;99.90
17797;DHT22;55596;53.554;9.916;2022-11-20T13:19:11;3.70;99.90
17797;DHT22;55596;53.554;9.916;2022-11-20T13:21:40;3.90;99.90
17797;DHT22;55596;53.554;9.916;2022-11-20T13:24:22;3.60;99.90
17797;DHT22;55596;53.554;9.916;2022-11-20T13:27:00;3.80;99.90
17797;DHT22;55596;53.554;9.916;2022-11-20T13:29:28;4.00;99.90
17797;DHT22;55596;53.554;9.916;2022-11-20T13:32:04;3.90;99.90
17797;DHT22;55596;53.554;9.916;2022-11-20T13:34:31;3.80;99.90
17797;DHT22;55596;53.554;9.916;2022-11-20T13:36:59;4.30;99.90
17797;DHT22;55596;53.554;9.916;2022-11-20T13:39:32;4.40;99.90
17797;DHT22;55596;53.554;9.916;2022-11-20T13:42:00;3.80;99.90
17797;DHT22;55596;53.554;9.916;2022-11-20T13:44:32;3.90;99.90
17797;DHT22;55596;53.554;9.916;2022-11-20T13:47:00;4.10;99.90
17797;DHT22;55596;53.554;9.916;2022-11-20T13:49:32;4.30;99.90
17797;DHT22;55596;53.554;9.916;2022-11-20T13:52:14;3.90;99.90
17797;DHT22;55596;53.554;9.916;2022-11-20T13:55:02;3.80;99.90
17797;DHT22;55596;53.554;9.916;2022-11-20T13:57:53;3.90;99.90
17797;DHT22;55596;53.554;9.916;2022-11-20T14:00:25;4.00;99.90
17797;DHT22;55596;53.554;9.916;2022-11-20T14:03:02;4.00;99.90
17797;DHT22;55596;53.554;9.916;2022-11-20T14:05:36;3.30;99.90
17797;DHT22;55596;53.554;9.916;2022-11-20T14:08:05;4.00;99.90
17797;DHT22;55596;53.554;9.916;2022-11-20T14:10:35;3.90;99.90
17797;DHT22;55596;53.554;9.916;2022-11-20T14:13:11;3.80;99.90
17797;DHT22;55596;53.554;9.916;2022-11-20T14:15:42;4.00;99.90
17797;DHT22;55596;53.554;9.916;2022-11-20T14:18:13;3.30;99.90
17797;DHT22;55596;53.554;9.916;2022-11-20T14:20:41;3.80;99.90
17797;DHT22;55596;53.554;9.916;2022-11-20T14:23:10;4.20;99.90
17797;DHT22;55596;53.554;9.916;2022-11-20T14:25:42;4.30;99.90
17797;DHT22;55596;53.554;9.916;2022-11-20T14:28:11;4.50;99.90
17797;DHT22;55596;53.554;9.916;2022-11-20T14:30:47;3.80;99.90
17797;DHT22;55596;53.554;9.916;2022-11-20T14:33:14;4.40;99.90
17797;DHT22;55596;53.554;9.916;2022-11-20T14:35:45;4.00;99.90
17797;DHT22;55596;53.554;9.916;2022-11-20T14:38:14;4.20;99.90
17797;DHT22;55596;53.554;9.916;2022-11-20T14:40:43;3.30;99.90
17797;DHT22;55596;53.554;9.916;2022-11-20T14:43:20;4.40;99.90
17797;DHT22;55596;53.554;9.916;2022-11-20T14:45:52;3.40;99.90
17797;DHT22;55596;53.554;9.916;2022-11-20T14:48:24;3.40;99.90
17797;DHT22;55596;53.554;9.916;2022-11-20T14:50:53;3.70;99.90
17797;DHT22;55596;53.554;9.916;2022-11-20T14:53:22;3.10;99.90
17797;DHT22;55596;53.554;9.916;2022-11-20T14:55:56;3.10;99.90
17797;DHT22;55596;53.554;9.916;2022-11-20T14:58:25;4.50;99.90
17797;DHT22;55596;53.554;9.916;2022-11-20T15:00:56;2.90;99.90
17797;DHT22;55596;53.554;9.916;2022-11-20T15:03:31;2.60;99.90
17797;DHT22;55596;53.554;9.916;2022-11-20T15:05:58;2.90;99.90
17797;DHT22;55596;53.554;9.916;2022-11-20T15:08:25;3.30;99.90
17797;DHT22;55596;53.554;9.916;2022-11-20T15:10:53;3.40;99.90
17797;DHT22;55596;53.554;9.916;2022-11-20T15:13:26;3.00;99.90
17797;DHT22;55596;53.554;9.916;2022-11-20T15:15:57;2.90;99.90
17797;DHT22;55596;53.554;9.916;2022-11-20T15:18:27;2.70;99.90
17797;DHT22;55596;53.554;9.916;2022-11-20T15:20:56;3.60;99.90
17797;DHT22;55596;53.554;9.916;2022-11-20T15:23:23;2.50;99.90
17797;DHT22;55596;53.554;9.916;2022-11-20T15:25:52;2.50;99.90
17797;DHT22;55596;53.554;9.916;2022-11-20T15:28:30;2.90;99.90
17797;DHT22;55596;53.554;9.916;2022-11-20T15:30:59;2.20;99.90
17797;DHT22;55596;53.554;9.916;2022-11-20T15:33:26;2.50;99.90
17797;DHT22;55596;53.554;9.916;2022-11-20T15:35:53;2.40;99.90
17797;DHT22;55596;53.554;9.916;2022-11-20T15:38:20;2.00;99.90
17797;DHT22;55596;53.554;9.916;2022-11-20T15:40:47;2.20;99.90
17797;DHT22;55596;53.554;9.916;2022-11-20T15:43:14;2.30;99.90
17797;DHT22;55596;53.554;9.916;2022-11-20T15:45:43;2.30;99.90
17797;DHT22;55596;53.554;9.916;2022-11-20T15:48:16;4.90;99.90
17797;DHT22;55596;53.554;9.916;2022-11-20T15:50:49;2.30;99.90
17797;DHT22;55596;53.554;9.916;2022-11-20T15:53:17;2.60;99.90
17797;DHT22;55596;53.554;9.916;2022-11-20T15:55:44;3.50;99.90
17797;DHT22;55596;53.554;9.916;2022-11-20T15:58:11;2.40;99.90
17797;DHT22;55596;53.554;9.916;2022-11-20T16:00:38;2.20;99.90
17797;DHT22;55596;53.554;9.916;2022-11-20T16:03:07;2.10;99.90
17797;DHT22;55596;53.554;9.916;2022-11-20T16:05:36;1.80;99.90
17797;DHT22;55596;53.554;9.916;2022-11-20T16:08:03;3.50;99.90
17797;DHT22;55596;53.554;9.916;2022-11-20T16:10:30;2.50;99.90